Terminal Aerodrome Forecast
Issued by NWS

Home | Current Version | Previous Version | Text Only | Print | Product List | Glossary On
Versions: 1 2 3 4 5 6 7 8 9 10 11 12 13 14 15 16 17 18 19 20 21 22 23 24 25
000
FTUS41 KBOX 290526
TAFHYA
TAF
KHYA 290526Z 2906/3006 20010KT 4SM BR OVC005
     FM290700 20004KT 1SM BR OVC005
     FM291100 19004KT 4SM -SHRA BR OVC008
     FM291400 01006KT 1 1/2SM SHRA BR OVC008
     FM291800 04009KT 4SM -SHRA OVC012
     FM300100 02007KT P6SM VCSH OVC050
     FM300400 36006KT P6SM BKN250=

USA.gov is the U.S. government's official web portal to all federal, state and local government web resources and services.